Date,TemperatureHighF,TemperatureAvgF,TemperatureLowF,DewpointHighF,DewpointAvgF,DewpointLowF,HumidityHigh,HumidityAvg,HumidityLow,PressureMaxIn,PressureMinIn,WindSpeedMaxMPH,WindSpeedAvgMPH,GustSpeedMaxMPH,PrecipitationSumIn
2013-3-1,33.4,30.1,26.8,32.2,26.6,23.4,96,87,77,30.22,30.07,10,6,16,0.02
2013-3-2,31.4,26.7,16.9,23.6,19.2,13.2,87,73,56,30.25,30.19,12,7,19,0.00
2013-3-3,34.3,24.5,12.9,23.7,17.9,11.0,93,77,52,30.22,30.08,4,1,7,0.00
2013-3-4,38.3,33.7,28.1,32.2,28.3,21.3,90,81,73,30.10,29.88,12,6,21,0.01
2013-3-5,36.2,33.1,30.1,33.2,31.1,28.2,97,93,84,30.07,29.83,16,9,25,0.12
2013-3-6,32.3,29.5,26.0,27.9,25.8,23.2,92,86,80,30.36,30.08,15,9,27,0.01
2013-3-7,36.6,31.1,27.1,30.5,27.2,24.4,91,85,77,30.43,30.35,5,2,11,0.00
2013-3-8,47.2,37.0,26.9,39.9,32.7,25.1,94,85,74,30.45,30.23,8,4,15,0.01
2013-3-9,52.6,44.1,38.5,47.3,40.1,34.4,95,86,78,30.23,29.76,11,6,21,0.41
2013-3-10,53.2,50.4,46.4,52.5,49.4,44.3,99,96,86,29.77,29.55,8,4,16,1.17
2013-3-11,49.8,37.6,32.5,49.5,35.9,28.8,99,93,86,29.91,29.60,16,11,24,0.01
2013-3-12,41.9,33.4,27.6,34.8,28.5,24.0,91,82,70,30.15,29.91,16,10,23,0.00
2013-3-13,38.4,30.2,24.9,25.5,22.8,21.0,86,75,51,30.38,30.14,13,8,23,0.00
2013-3-14,46.6,34.3,23.5,36.9,29.4,21.4,94,83,63,30.38,30.09,9,3,21,0.00
2013-3-15,55.1,42.2,29.4,47.3,38.1,27.9,96,86,72,30.08,29.64,6,2,11,0.00
2013-3-16,47.7,39.0,33.0,44.9,35.3,29.8,97,87,73,30.10,29.62,13,6,21,0.00
2013-3-17,40.4,35.2,31.5,32.2,29.5,26.0,88,80,70,30.16,29.89,11,7,21,0.00
2013-3-18,42.6,34.8,27.8,38.5,31.7,20.6,97,89,72,29.95,29.68,18,8,27,0.05
2013-3-19,42.7,31.2,22.6,23.8,19.8,14.8,80,64,41,30.17,29.93,16,10,24,0.00
2013-3-20,32.6,26.4,19.0,23.2,15.3,11.0,80,63,48,30.23,30.11,18,12,28,0.00
2013-3-21,36.5,25.6,15.6,19.0,14.4,10.7,84,64,45,30.14,30.02,11,3,16,0.00
2013-3-22,45.6,32.8,18.5,28.3,21.6,15.8,91,66,40,30.08,29.99,5,1,10,0.00
2013-3-23,50.7,40.9,34.2,32.1,28.3,24.9,75,62,44,30.08,29.94,10,5,18,0.00
2013-3-24,34.9,32.2,30.6,33.2,30.9,26.8,98,95,73,29.96,29.63,13,9,22,0.15
2013-3-25,38.0,33.3,28.7,30.9,29.6,27.7,98,87,73,30.14,29.76,13,9,23,0.17
2013-3-26,39.3,35.5,31.6,30.9,29.3,27.3,84,78,66,30.31,30.14,10,6,14,0.00
2013-3-27,45.9,36.6,29.5,32.3,29.1,26.5,91,75,54,30.37,30.31,7,3,12,0.00
2013-3-28,49.4,37.5,24.6,36.1,30.7,23.1,96,78,56,30.38,30.28,5,1,11,0.00
2013-3-29,59.4,46.5,35.6,40.4,36.7,32.7,90,71,45,30.30,30.19,5,2,10,0.00
2013-3-30,57.1,46.8,33.6,47.1,41.2,31.8,96,82,63,30.20,29.88,11,4,22,0.00
2013-3-31,63.6,51.8,41.9,49.6,43.2,31.4,96,75,48,29.93,29.77,16,8,37,0.00